Mc Knightstown, Pennsylvania
Current Conditions -  °F | °C
As of 1:53 PM on Tuesday 21 Oct 2014 (Local Time) from KRYT Reporting Station
Scattered Clouds Scattered Clouds  
Wind Chill: 17°   Ceiling: Unl
Heat Index: 17°   Visibility: 10mi
Dew Point:   Wind: 0mph
Humidity: 54%   Direction: NA
Pressure: 29.81"   Gusts: NA
Location:  39.8752°N, 77.3219°W
Report Text: KRYT 211753Z AUTO 00000KT 10SM SCT110 17/08 A2981 RMK AO2 SLP094 T01720078 10172 20083 58016 $
Loading
Personal Weather Stations






























Interactive Weather Map
Tropical Storm Tracking
New forecast layout! Learn more

10-Day Weather Forecast

Advertisements
Track Severe Weather on mobile